Terminal Aerodrome Forecast
Issued by NWS Cleveland, OH

Home | Current Version | Previous Version | Text Only | Print | Product List | Glossary On
Versions: 1 2 3 4 5 6 7 8 9 10 11 12 13 14 15 16
655
FTUS41 KCLE 100525
TAFYNG
TAF
KYNG 100525Z 1006/1106 25010KT P6SM OVC035
      TEMPO 1006/1008 -SHSN OVC015
     FM101400 25010G15KT P6SM BKN060
     FM101900 25009KT P6SM SCT060
     FM110000 21004KT P6SM OVC080=

USA.gov is the U.S. government's official web portal to all federal, state and local government web resources and services.